Time;durP1;ratioP1;P1;durP2;ratioP2;P2;SDS_P1;SDS_P2;PMS_P1;PMS_P2;Temp;Humidity;BMP_temperature;BMP_pressure;BME280_temperature;BME280_humidity;BME280_pressure;Samples;Min_cycle;Max_cycle;Signal;HPM_P1;HPM_P2
2021/04/14 00:01:06;;;;;;;6.67;5.20;;;4.40;99.90;;;;;;5038512;28;20025;-66
2021/04/14 00:03:32;;;;;;;8.73;4.83;;;4.40;99.90;;;;;;5056658;28;20029;-68
2021/04/14 00:05:59;;;;;;;5.73;5.13;;;4.40;99.90;;;;;;5056370;28;20072;-65
2021/04/14 00:08:30;;;;;;;6.40;5.60;;;4.40;99.90;;;;;;5056313;28;20087;-68
2021/04/14 00:10:56;;;;;;;5.20;4.70;;;4.50;99.90;;;;;;5056596;28;20031;-69
2021/04/14 00:13:26;;;;;;;7.53;5.13;;;4.50;99.90;;;;;;5056209;28;20083;-71
2021/04/14 00:15:56;;;;;;;5.30;4.77;;;4.40;99.90;;;;;;5038126;28;20035;-69
2021/04/14 00:18:22;;;;;;;7.77;5.80;;;4.40;99.90;;;;;;5038351;28;20102;-69
2021/04/14 00:20:49;;;;;;;6.80;4.93;;;4.40;99.90;;;;;;5056090;28;20442;-67
2021/04/14 00:23:17;;;;;;;6.90;5.07;;;4.40;99.90;;;;;;5056156;28;20108;-68
2021/04/14 00:25:45;;;;;;;6.83;5.10;;;4.40;99.90;;;;;;5055987;28;20481;-67
2021/04/14 00:28:13;;;;;;;5.70;5.10;;;4.40;99.90;;;;;;5055997;28;20029;-67
2021/04/14 00:30:39;;;;;;;6.53;5.47;;;4.40;99.90;;;;;;5056013;28;20033;-66
2021/04/14 00:33:05;;;;;;;6.53;5.33;;;4.40;99.90;;;;;;5056202;28;20032;-69
2021/04/14 00:35:31;;;;;;;6.47;5.00;;;4.40;99.90;;;;;;5055729;28;20517;-67
2021/04/14 00:37:58;;;;;;;6.20;5.50;;;4.40;99.90;;;;;;5055725;28;20527;-66
2021/04/14 00:40:29;;;;;;;6.00;5.17;;;4.40;99.90;;;;;;5055727;28;20111;-67
2021/04/14 00:42:56;;;;;;;7.00;5.23;;;4.40;99.90;;;;;;5055815;28;20025;-68
2021/04/14 00:45:23;;;;;;;6.63;4.90;;;4.40;99.90;;;;;;5054406;28;20384;-70
2021/04/14 00:47:49;;;;;;;6.23;4.90;;;4.40;99.90;;;;;;5055573;28;20021;-68
2021/04/14 00:50:19;;;;;;;6.40;4.90;;;4.40;99.90;;;;;;5055500;28;20386;-69
2021/04/14 00:52:45;;;;;;;6.07;4.90;;;4.40;99.90;;;;;;5037523;28;20469;-67
2021/04/14 00:55:14;;;;;;;4.93;4.43;;;4.40;99.90;;;;;;5055463;28;20036;-69
2021/04/14 00:57:40;;;;;;;4.30;3.90;;;4.40;99.90;;;;;;5055141;28;20107;-68
2021/04/14 01:00:11;;;;;;;6.30;5.67;;;4.40;99.90;;;;;;5037511;28;20469;-72
2021/04/14 01:02:37;;;;;;;6.27;4.57;;;4.40;99.90;;;;;;5037569;28;20025;-70
2021/04/14 01:05:07;;;;;;;5.70;4.50;;;4.50;99.90;;;;;;5055355;28;20036;-70
2021/04/14 01:07:33;;;;;;;5.57;4.97;;;4.50;99.90;;;;;;5055341;28;20035;-69
2021/04/14 01:09:59;;;;;;;5.13;4.33;;;4.50;99.90;;;;;;5055204;28;20029;-67
2021/04/14 01:12:25;;;;;;;4.80;4.20;;;4.50;99.90;;;;;;5055340;28;20060;-68
2021/04/14 01:14:51;;;;;;;6.63;4.80;;;4.50;99.90;;;;;;5055137;28;20060;-68
2021/04/14 01:17:17;;;;;;;6.27;5.00;;;4.40;99.90;;;;;;5054965;28;20033;-69
2021/04/14 01:19:43;;;;;;;5.17;4.67;;;4.50;99.90;;;;;;5054552;28;20033;-68
2021/04/14 01:22:09;;;;;;;6.50;4.67;;;4.50;99.90;;;;;;5036765;28;20025;-71
2021/04/14 01:24:35;;;;;;;5.27;4.40;;;4.50;99.90;;;;;;5036822;28;20036;-70
2021/04/14 01:27:01;;;;;;;5.40;4.77;;;4.50;99.90;;;;;;5054694;28;20127;-68
2021/04/14 01:29:27;;;;;;;6.00;4.07;;;4.50;99.90;;;;;;5036821;28;20021;-70
2021/04/14 01:31:53;;;;;;;5.90;4.73;;;4.50;99.90;;;;;;5054746;28;20485;-69
2021/04/14 01:34:19;;;;;;;5.23;4.70;;;4.50;99.90;;;;;;5055051;28;20488;-70
2021/04/14 01:36:46;;;;;;;5.17;4.47;;;4.50;99.90;;;;;;5054577;28;20087;-70
2021/04/14 01:39:13;;;;;;;4.20;3.77;;;4.40;99.90;;;;;;5036685;28;20083;-72
2021/04/14 01:41:40;;;;;;;4.63;4.13;;;4.40;99.90;;;;;;5054494;28;20086;-71
2021/04/14 01:44:10;;;;;;;5.53;4.90;;;4.30;99.90;;;;;;5054528;28;20108;-68
2021/04/14 01:46:42;;;;;;;4.30;3.90;;;4.30;99.90;;;;;;5054420;28;20021;-69
2021/04/14 01:49:09;;;;;;;4.15;3.83;;;4.40;99.90;;;;;;5054834;28;20029;-71
2021/04/14 01:51:35;;;;;;;5.63;4.97;;;4.40;99.90;;;;;;5036619;28;20033;-72
2021/04/14 01:54:02;;;;;;;5.10;4.60;;;4.30;99.90;;;;;;5054587;28;20033;-71
2021/04/14 01:56:28;;;;;;;6.27;4.07;;;4.30;99.90;;;;;;5032240;28;20053;-73
2021/04/14 01:58:55;;;;;;;8.23;4.50;;;4.20;99.90;;;;;;5034210;28;20026;-70
2021/04/14 02:01:21;;;;;;;6.10;5.00;;;4.30;99.90;;;;;;5034323;28;20520;-71
2021/04/14 02:03:47;;;;;;;4.83;4.27;;;4.20;99.90;;;;;;5034074;28;20033;-69
2021/04/14 02:06:16;;;;;;;4.60;4.13;;;4.20;99.90;;;;;;5034263;28;20167;-70
2021/04/14 02:08:43;;;;;;;5.33;4.33;;;4.20;99.90;;;;;;5032876;28;20071;-71
2021/04/14 02:11:11;;;;;;;5.20;4.70;;;4.20;99.90;;;;;;5033846;28;20474;-71
2021/04/14 02:13:39;;;;;;;7.17;5.00;;;4.10;99.90;;;;;;5034345;28;20025;-69
2021/04/14 02:16:08;;;;;;;7.60;4.73;;;4.20;99.90;;;;;;5034089;28;20035;-73
2021/04/14 02:18:34;;;;;;;3.90;3.37;;;4.20;99.90;;;;;;5032789;28;20034;-69
2021/04/14 02:21:00;;;;;;;4.67;4.10;;;4.10;99.90;;;;;;5034033;28;20051;-70
2021/04/14 02:23:35;;;;;;;4.80;4.30;;;4.10;99.90;;;;;;5032698;28;20025;-69
2021/04/14 02:26:05;;;;;;;4.30;3.90;;;4.10;99.90;;;;;;5034058;28;20057;-68
2021/04/14 02:28:31;;;;;;;4.67;4.03;;;4.10;99.90;;;;;;5033926;28;20425;-69
2021/04/14 02:30:58;;;;;;;4.80;4.27;;;4.10;99.90;;;;;;5033894;28;20026;-67
2021/04/14 02:33:24;;;;;;;3.90;3.60;;;4.00;99.90;;;;;;5032565;28;20112;-68
2021/04/14 02:35:52;;;;;;;4.50;3.83;;;4.00;99.90;;;;;;5033807;28;20029;-70
2021/04/14 02:38:20;;;;;;;5.10;4.40;;;4.00;99.90;;;;;;5033770;28;20061;-68
2021/04/14 02:40:46;;;;;;;4.50;4.10;;;4.10;99.90;;;;;;5033807;28;20466;-70
2021/04/14 02:43:13;;;;;;;5.20;4.70;;;4.00;99.90;;;;;;5033668;28;20374;-68
2021/04/14 02:45:40;;;;;;;4.60;3.90;;;4.00;99.90;;;;;;5033859;28;20041;-69
2021/04/14 02:48:07;;;;;;;4.33;3.93;;;4.00;99.90;;;;;;5033686;28;20079;-68
2021/04/14 02:50:33;;;;;;;4.30;3.90;;;4.00;99.90;;;;;;5032420;28;20025;-69
2021/04/14 02:53:00;;;;;;;5.37;4.07;;;4.00;99.90;;;;;;5033410;28;20082;-68
2021/04/14 02:55:28;;;;;;;4.37;3.93;;;4.00;99.90;;;;;;5033723;28;20386;-68
2021/04/14 02:57:54;;;;;;;6.17;4.47;;;4.00;99.90;;;;;;5049673;28;20064;-68
2021/04/14 03:00:22;;;;;;;4.17;3.77;;;4.00;99.90;;;;;;5053661;28;20029;-72
2021/04/14 03:02:49;;;;;;;5.30;3.87;;;4.00;99.90;;;;;;5053435;28;20377;-70
2021/04/14 03:05:20;;;;;;;3.87;3.57;;;3.90;99.90;;;;;;5053499;28;20029;-71
2021/04/14 03:07:46;;;;;;;6.13;4.37;;;3.90;99.90;;;;;;5035841;28;20033;-70
2021/04/14 03:10:13;;;;;;;4.37;3.97;;;3.90;99.90;;;;;;5057378;28;20108;-70
2021/04/14 03:12:40;;;;;;;4.20;3.80;;;3.90;99.90;;;;;;5057357;28;20018;-68
2021/04/14 03:15:09;;;;;;;4.40;4.00;;;3.90;99.90;;;;;;5039431;28;20021;-72
2021/04/14 03:17:35;;;;;;;5.63;4.57;;;3.90;99.90;;;;;;5039344;28;20458;-67
2021/04/14 03:20:04;;;;;;;4.70;4.17;;;3.90;99.90;;;;;;5056955;28;20029;-70
2021/04/14 03:22:31;;;;;;;6.10;4.10;;;3.90;99.90;;;;;;5039164;28;20036;-71
2021/04/14 03:24:57;;;;;;;4.10;3.70;;;4.00;99.90;;;;;;5039457;28;20028;-68
2021/04/14 03:27:23;;;;;;;4.80;4.37;;;3.90;99.90;;;;;;5057087;28;20033;-66
2021/04/14 03:29:48;;;;;;;6.10;4.77;;;4.00;99.90;;;;;;5057371;28;20029;-68
2021/04/14 03:32:15;;;;;;;5.50;4.90;;;4.00;99.90;;;;;;5056753;28;20029;-70
2021/04/14 03:34:41;;;;;;;5.53;4.47;;;3.90;99.90;;;;;;5057099;28;20056;-69
2021/04/14 03:37:07;;;;;;;5.47;4.57;;;4.00;99.90;;;;;;5056881;28;20142;-69
2021/04/14 03:39:33;;;;;;;4.57;4.17;;;4.00;99.90;;;;;;5056817;28;20037;-67
2021/04/14 03:41:58;;;;;;;6.30;4.10;;;4.00;99.90;;;;;;5038632;28;20027;-70
2021/04/14 03:44:31;;;;;;;6.03;4.77;;;4.00;99.90;;;;;;5038856;28;20035;-72
2021/04/14 03:46:57;;;;;;;5.30;4.73;;;4.10;99.90;;;;;;5038964;28;20103;-68
2021/04/14 03:49:23;;;;;;;5.03;4.53;;;4.10;99.90;;;;;;5056706;28;20045;-71
2021/04/14 03:51:49;;;;;;;5.13;4.63;;;4.10;99.90;;;;;;5056669;28;20033;-69
2021/04/14 03:54:14;;;;;;;6.33;5.27;;;4.00;99.90;;;;;;5038740;28;20471;-68
2021/04/14 03:56:40;;;;;;;5.97;4.93;;;4.00;99.90;;;;;;5056674;28;20080;-70
2021/04/14 03:59:06;;;;;;;4.23;3.83;;;4.00;99.90;;;;;;5056490;28;20028;-69
2021/04/14 04:01:32;;;;;;;4.77;3.77;;;4.00;99.90;;;;;;5056492;28;20075;-68
2021/04/14 04:03:59;;;;;;;4.67;4.27;;;3.90;99.90;;;;;;5056554;28;20033;-70
2021/04/14 04:06:25;;;;;;;4.20;3.80;;;4.00;99.90;;;;;;5056462;28;20029;-70
2021/04/14 04:08:52;;;;;;;5.97;5.00;;;3.90;99.90;;;;;;5056473;28;20498;-68
2021/04/14 04:11:21;;;;;;;5.10;4.13;;;4.00;99.90;;;;;;5056622;28;20035;-69
2021/04/14 04:13:48;;;;;;;4.30;3.83;;;4.00;99.90;;;;;;5038324;28;20094;-70
2021/04/14 04:16:14;;;;;;;4.50;3.90;;;3.90;99.90;;;;;;5056259;28;20029;-69
2021/04/14 04:18:40;;;;;;;5.37;4.77;;;3.90;99.90;;;;;;5056140;28;20507;-69
2021/04/14 04:21:07;;;;;;;3.97;3.60;;;4.00;99.90;;;;;;5055973;28;20067;-69
2021/04/14 04:23:33;;;;;;;5.13;4.20;;;4.00;99.90;;;;;;5038314;28;20071;-69
2021/04/14 04:25:59;;;;;;;5.93;5.33;;;4.00;99.90;;;;;;5038217;28;20037;-70
2021/04/14 04:28:25;;;;;;;8.67;4.37;;;4.00;99.90;;;;;;5038544;28;20386;-68
2021/04/14 04:30:51;;;;;;;5.40;4.50;;;4.00;99.90;;;;;;5055959;28;20021;-69
2021/04/14 04:33:18;;;;;;;7.33;5.17;;;4.00;99.90;;;;;;5055938;28;20619;-68
2021/04/14 04:35:44;;;;;;;6.83;5.20;;;4.10;99.90;;;;;;5055743;28;20035;-68
2021/04/14 04:38:10;;;;;;;6.00;4.60;;;4.00;99.90;;;;;;5055739;28;20124;-72
2021/04/14 04:40:36;;;;;;;7.40;4.87;;;4.10;99.90;;;;;;5055600;28;20033;-69
2021/04/14 04:43:03;;;;;;;9.87;5.10;;;4.10;99.90;;;;;;5037733;28;20052;-67
2021/04/14 04:45:30;;;;;;;6.33;4.87;;;4.10;99.90;;;;;;5055615;28;20086;-69
2021/04/14 04:47:57;;;;;;;5.40;4.43;;;4.10;99.90;;;;;;5055618;28;20040;-69
2021/04/14 04:50:27;;;;;;;5.80;4.47;;;4.10;99.90;;;;;;5055354;28;20064;-68
2021/04/14 04:53:00;;;;;;;5.30;4.23;;;4.10;99.90;;;;;;5055600;28;20029;-68
2021/04/14 04:55:27;;;;;;;4.67;3.73;;;4.10;99.90;;;;;;5055564;28;20036;-70
2021/04/14 04:57:52;;;;;;;5.37;4.73;;;4.10;99.90;;;;;;5037343;28;20397;-70
2021/04/14 05:00:20;;;;;;;5.70;5.10;;;4.20;99.90;;;;;;5055060;28;20032;-69
2021/04/14 05:02:46;;;;;;;6.77;4.97;;;4.20;99.90;;;;;;5037416;28;20028;-69
2021/04/14 05:05:17;;;;;;;8.40;5.60;;;4.20;99.90;;;;;;5055339;28;20029;-69
2021/04/14 05:07:42;;;;;;;6.10;5.30;;;4.20;99.90;;;;;;5055314;28;20487;-69
2021/04/14 05:10:13;;;;;;;6.50;4.73;;;4.20;99.90;;;;;;5055194;28;20116;-69
2021/04/14 05:12:39;;;;;;;9.10;5.70;;;4.20;99.90;;;;;;5055248;28;20059;-72
2021/04/14 05:15:06;;;;;;;12.40;6.63;;;4.20;99.90;;;;;;5037248;28;20057;-68
2021/04/14 05:17:32;;;;;;;5.87;5.10;;;4.30;99.90;;;;;;5054704;28;20426;-70
2021/04/14 05:19:58;;;;;;;4.87;4.37;;;4.30;99.90;;;;;;5055007;28;20063;-71
2021/04/14 05:22:27;;;;;;;4.67;4.27;;;4.30;99.90;;;;;;5054920;28;20485;-70
2021/04/14 05:24:52;;;;;;;6.87;5.00;;;4.40;99.90;;;;;;5054905;28;20053;-70
2021/04/14 05:27:18;;;;;;;5.37;4.47;;;4.40;99.90;;;;;;5055036;28;20061;-72
2021/04/14 05:29:44;;;;;;;4.93;4.40;;;4.50;99.90;;;;;;5036605;28;20028;-71
2021/04/14 05:32:10;;;;;;;6.13;4.83;;;4.50;99.90;;;;;;5053754;28;20049;-70
2021/04/14 05:34:36;;;;;;;5.60;5.00;;;4.50;99.90;;;;;;5054769;28;20028;-72
2021/04/14 05:37:02;;;;;;;8.33;5.63;;;4.50;99.90;;;;;;5036851;28;20033;-70
2021/04/14 05:39:28;;;;;;;7.27;4.77;;;4.50;99.90;;;;;;5036742;28;20044;-70
2021/04/14 05:41:54;;;;;;;6.03;4.83;;;4.50;99.90;;;;;;5054635;28;20031;-72
2021/04/14 05:44:20;;;;;;;8.50;6.00;;;4.60;99.90;;;;;;5054229;28;20033;-72
2021/04/14 05:46:46;;;;;;;8.57;6.13;;;4.60;99.90;;;;;;5036546;28;20039;-73
2021/04/14 05:49:12;;;;;;;9.43;6.20;;;4.70;99.90;;;;;;5036400;28;20029;-69
2021/04/14 05:51:37;;;;;;;7.70;5.83;;;4.70;99.90;;;;;;5054325;28;20033;-69
2021/04/14 05:54:04;;;;;;;6.27;5.23;;;4.70;99.90;;;;;;5036387;28;20454;-70
2021/04/14 05:56:31;;;;;;;5.43;4.80;;;4.70;99.90;;;;;;5054056;28;20052;-70
2021/04/14 05:58:57;;;;;;;11.10;6.80;;;;;;;;;;5036248;28;20477;-68
2021/04/14 06:01:26;;;;;;;5.07;4.57;;;4.90;99.90;;;;;;5036641;28;20025;-69
2021/04/14 06:03:52;;;;;;;9.80;6.33;;;4.90;99.90;;;;;;5036589;28;20102;-69
2021/04/14 06:06:19;;;;;;;6.17;5.10;;;4.90;99.90;;;;;;5054139;28;20477;-68
2021/04/14 06:08:45;;;;;;;4.67;4.27;;;4.90;99.90;;;;;;5036462;28;20382;-71
2021/04/14 06:11:11;;;;;;;4.43;4.03;;;4.90;99.90;;;;;;5021866;28;20033;-70
2021/04/14 06:13:37;;;;;;;5.37;4.87;;;4.90;99.90;;;;;;5042882;28;20030;-69
2021/04/14 06:16:05;;;;;;;8.60;5.87;;;4.80;99.90;;;;;;5035695;28;20441;-68
2021/04/14 06:18:31;;;;;;;6.53;5.00;;;4.80;99.90;;;;;;5033661;28;20036;-69
2021/04/14 06:20:59;;;;;;;7.97;4.93;;;4.90;99.90;;;;;;5032322;28;20095;-71
2021/04/14 06:23:24;;;;;;;5.50;4.30;;;4.80;99.90;;;;;;5033547;28;20043;-70
2021/04/14 06:26:00;;;;;;;6.47;5.40;;;4.80;99.90;;;;;;5014063;28;20471;-71
2021/04/14 06:28:26;;;;;;;8.70;5.67;;;4.70;99.90;;;;;;5014136;28;20057;-69
2021/04/14 06:30:53;;;;;;;7.07;5.63;;;4.80;99.90;;;;;;5031800;28;20505;-70
2021/04/14 06:33:21;;;;;;;6.33;5.03;;;4.80;99.90;;;;;;5031802;28;20482;-69
2021/04/14 06:35:47;;;;;;;5.47;4.40;;;4.90;99.90;;;;;;5031351;28;20390;-68
2021/04/14 06:38:17;;;;;;;7.43;5.47;;;4.80;99.90;;;;;;5031756;28;20139;-67
2021/04/14 06:43:54;;;;;;;6.72;4.70;;;4.70;99.90;;;;;;4991996;28;20035;-72
2021/04/14 06:46:28;;;;;;;6.63;5.00;;;4.70;99.90;;;;;;5027625;28;20533;-70
2021/04/14 06:49:12;;;;;;;6.03;4.40;;;4.70;99.90;;;;;;5016108;28;20351;-71
2021/04/14 06:51:42;;;;;;;10.50;6.43;;;4.70;99.90;;;;;;5015931;28;20021;-71
2021/04/14 06:54:25;;;;;;;8.33;6.07;;;4.70;99.90;;;;;;5033397;28;20474;-70
2021/04/14 06:56:57;;;;;;;7.17;5.57;;;4.70;99.90;;;;;;5012234;28;20494;-69
2021/04/14 06:59:28;;;;;;;6.80;5.50;;;4.70;99.90;;;;;;5013912;28;20022;-69
2021/04/14 07:02:20;;;;;;;8.13;5.27;;;4.70;99.90;;;;;;5013947;28;20080;-68
2021/04/14 07:05:06;;;;;;;10.23;6.45;;;4.60;99.90;;;;;;5012645;28;20022;-68
2021/04/14 07:07:36;;;;;;;8.30;4.97;;;4.70;99.90;;;;;;5011011;28;20034;-69
2021/04/14 07:10:28;;;;;;;5.67;4.97;;;4.70;99.90;;;;;;5012656;28;20037;-70
2021/04/14 07:13:00;;;;;;;8.00;5.50;;;4.70;99.90;;;;;;5012433;28;20033;-69
2021/04/14 07:15:27;;;;;;;7.25;5.55;;;4.70;99.90;;;;;;5013487;28;20486;-69
2021/04/14 07:18:14;;;;;;;6.07;4.27;;;4.70;99.90;;;;;;5013808;28;20065;-70
2021/04/14 07:20:43;;;;;;;5.13;4.30;;;4.70;99.90;;;;;;5013973;28;20520;-71
2021/04/14 07:23:47;;;;;;;6.30;4.20;;;4.70;99.90;;;;;;5013671;28;20022;-69
2021/04/14 07:26:33;;;;;;;7.80;5.13;;;4.70;99.90;;;;;;5012690;28;20422;-69
2021/04/14 07:29:10;;;;;;;11.53;5.63;;;4.80;99.90;;;;;;5013383;28;20116;-71
2021/04/14 07:32:06;;;;;;;11.43;5.93;;;4.80;99.90;;;;;;5013981;28;20048;-71
2021/04/14 07:35:01;;;;;;;5.37;4.30;;;4.80;99.90;;;;;;5012249;28;20125;-69
2021/04/14 07:37:37;;;;;;;5.03;4.17;;;4.80;99.90;;;;;;5013506;28;20183;-70
2021/04/14 07:40:17;;;;;;;7.23;5.50;;;4.80;99.90;;;;;;5013287;28;20034;-69
2021/04/14 07:42:55;;;;;;;5.73;5.00;;;4.80;99.90;;;;;;5012197;28;20426;-71
2021/04/14 07:45:34;;;;;;;6.77;5.07;;;4.90;99.90;;;;;;5012003;28;20484;-70
2021/04/14 07:48:20;;;;;;;10.90;6.13;;;5.00;99.90;;;;;;5011994;28;20088;-68
2021/04/14 07:50:52;;;;;;;7.83;5.13;;;5.10;99.90;;;;;;5013478;28;20125;-70
2021/04/14 07:53:30;;;;;;;5.53;4.30;;;5.10;99.90;;;;;;5013366;28;20025;-69
2021/04/14 07:56:23;;;;;;;11.23;6.37;;;5.10;99.90;;;;;;5016664;28;20021;-70
2021/04/14 07:59:11;;;;;;;5.57;5.00;;;5.10;99.90;;;;;;5018733;28;20030;-71
2021/04/14 08:01:48;;;;;;;6.17;5.30;;;5.00;99.90;;;;;;5036628;28;20467;-68
2021/04/14 08:04:24;;;;;;;6.73;5.13;;;5.00;99.90;;;;;;5036888;28;20058;-69
2021/04/14 08:06:50;;;;;;;6.23;5.10;;;5.00;99.90;;;;;;5018718;28;20034;-71
2021/04/14 08:09:20;;;;;;;5.67;4.47;;;5.00;99.90;;;;;;5036445;28;20040;-68
2021/04/14 08:11:48;;;;;;;5.67;4.70;;;5.10;99.90;;;;;;5036487;28;20021;-73
2021/04/14 08:14:21;;;;;;;6.27;4.10;;;5.10;99.90;;;;;;5036425;28;20029;-69
2021/04/14 08:16:53;;;;;;;6.30;4.60;;;5.10;99.90;;;;;;5018710;28;20076;-68
2021/04/14 08:19:24;;;;;;;6.40;5.13;;;5.10;99.90;;;;;;5035285;28;20053;-69
2021/04/14 08:21:58;;;;;;;9.07;5.87;;;5.20;99.90;;;;;;5053219;28;20013;-71
2021/04/14 08:24:36;;;;;;;8.07;6.10;;;5.30;99.90;;;;;;5055471;28;20438;-69
2021/04/14 08:27:14;;;;;;;6.47;5.00;;;5.30;99.90;;;;;;5056155;28;20021;-69
2021/04/14 08:29:40;;;;;;;7.77;5.30;;;5.10;99.90;;;;;;5038228;28;20025;-70
2021/04/14 08:32:16;;;;;;;5.82;4.88;;;5.10;99.90;;;;;;5055345;28;20100;-71
2021/04/14 08:34:56;;;;;;;5.70;4.13;;;5.00;99.90;;;;;;5055557;28;20025;-70
2021/04/14 08:37:23;;;;;;;5.77;4.50;;;5.10;99.90;;;;;;5055748;28;20052;-71
2021/04/14 08:40:12;;;;;;;8.90;6.47;;;5.20;99.90;;;;;;5037844;28;20052;-71
2021/04/14 08:42:39;;;;;;;6.40;5.20;;;5.30;99.90;;;;;;5037986;28;20515;-70
2021/04/14 08:45:09;;;;;;;9.90;6.60;;;5.20;99.90;;;;;;5037843;28;20454;-69
2021/04/14 08:47:36;;;;;;;6.47;5.57;;;5.10;99.90;;;;;;5055567;28;20029;-67
2021/04/14 08:50:28;;;;;;;9.57;6.43;;;5.20;99.90;;;;;;5037899;28;20386;-69
2021/04/14 08:52:58;;;;;;;6.45;5.35;;;5.20;99.90;;;;;;5044353;28;20052;-71
2021/04/14 08:55:27;;;;;;;8.93;6.60;;;5.20;99.90;;;;;;5037701;28;20056;-70
2021/04/14 08:57:55;;;;;;;9.63;7.22;;;5.20;99.90;;;;;;5037246;28;20052;-68
2021/04/14 09:00:22;;;;;;;7.17;6.10;;;5.30;99.90;;;;;;5055075;28;20025;-72
2021/04/14 09:02:50;;;;;;;7.10;5.30;;;5.20;99.90;;;;;;5055337;28;20061;-72
2021/04/14 09:05:20;;;;;;;8.13;5.73;;;5.20;99.90;;;;;;5036469;28;20516;-71
2021/04/14 09:07:48;;;;;;;6.13;5.23;;;5.10;99.90;;;;;;5054679;28;20021;-71
2021/04/14 09:10:32;;;;;;;14.60;6.00;;;5.10;99.90;;;;;;5054870;28;20037;-71
2021/04/14 09:13:01;;;;;;;8.77;5.97;;;5.10;99.90;;;;;;5055404;28;20036;-69
2021/04/14 09:15:26;;;;;;;14.90;6.90;;;5.20;99.90;;;;;;5036939;28;20381;-67
2021/04/14 09:18:01;;;;;;;12.83;8.00;;;5.60;99.90;;;;;;5055009;28;20021;-67
2021/04/14 09:20:35;;;;;;;9.43;5.53;;;5.80;99.90;;;;;;5036966;28;20102;-67
2021/04/14 09:23:11;;;;;;;9.53;5.80;;;5.90;99.90;;;;;;5054693;28;20381;-69
2021/04/14 09:25:43;;;;;;;14.13;7.67;;;5.70;99.90;;;;;;5055103;28;20052;-71
2021/04/14 09:28:28;;;;;;;12.73;6.95;;;5.50;99.90;;;;;;5054787;28;20495;-71
2021/04/14 09:30:56;;;;;;;7.63;6.07;;;5.40;99.90;;;;;;5054412;28;20040;-67
2021/04/14 09:33:45;;;;;;;11.77;7.90;;;5.30;99.90;;;;;;5054979;28;20457;-68
2021/04/14 09:36:12;;;;;;;15.80;9.77;;;5.20;99.90;;;;;;5053461;28;20025;-65
2021/04/14 09:38:48;;;;;;;14.93;9.55;;;5.20;99.90;;;;;;5054324;28;20116;-66
2021/04/14 09:41:32;;;;;;;8.20;7.30;;;5.30;99.90;;;;;;5036766;28;20039;-69
2021/04/14 09:44:34;;;;;;;13.63;9.13;;;5.20;99.90;;;;;;5054427;28;20115;-67
2021/04/14 09:47:29;;;;;;;10.00;7.00;;;5.20;99.90;;;;;;5054494;28;20094;-68
2021/04/14 09:49:57;;;;;;;9.65;8.07;;;5.10;99.90;;;;;;5022444;28;20095;-69
2021/04/14 09:52:48;;;;;;;11.18;8.00;;;5.20;99.90;;;;;;5036523;28;20052;-70
2021/04/14 09:55:20;;;;;;;13.20;7.63;;;5.20;99.90;;;;;;5054266;28;20461;-70
2021/04/14 09:57:48;;;;;;;;;;;5.20;99.90;;;;;;5054489;28;20049;-70
2021/04/14 10:00:28;;;;;;;10.50;7.37;;;5.30;99.90;;;;;;5054455;28;19912;-70
2021/04/14 10:03:08;;;;;;;9.10;6.40;;;5.30;99.90;;;;;;5053665;28;20040;-69
2021/04/14 10:05:34;;;;;;;10.03;6.87;;;5.20;99.90;;;;;;5053914;28;20049;-72
2021/04/14 10:08:03;;;;;;;7.67;6.50;;;5.20;99.90;;;;;;5053975;28;20103;-73
2021/04/14 10:10:29;;;;;;;10.03;7.30;;;5.30;99.90;;;;;;5035970;28;20047;-68
2021/04/14 10:12:56;;;;;;;8.75;6.22;;;5.30;99.90;;;;;;5053645;28;20543;-69
2021/04/14 10:15:38;;;;;;;8.80;5.70;;;5.30;99.90;;;;;;5053931;28;20053;-70
2021/04/14 10:18:07;;;;;;;8.77;6.13;;;5.30;99.90;;;;;;5053048;28;20469;-71
2021/04/14 10:20:36;;;;;;;9.10;6.33;;;5.30;99.90;;;;;;5051609;28;20455;-71
2021/04/14 10:23:05;;;;;;;12.73;8.03;;;5.40;99.90;;;;;;5053186;28;20025;-71
2021/04/14 10:25:41;;;;;;;8.65;6.57;;;5.50;99.90;;;;;;5035495;28;20048;-69
2021/04/14 10:28:08;;;;;;;12.52;7.32;;;5.50;99.90;;;;;;5046557;28;20055;-69
2021/04/14 10:30:39;;;;;;;9.48;6.72;;;5.50;99.90;;;;;;5053249;28;20082;-70
2021/04/14 10:33:30;;;;;;;13.45;7.82;;;5.60;99.90;;;;;;5053337;28;20068;-70
2021/04/14 10:36:07;;;;;;;10.03;7.83;;;5.60;99.90;;;;;;5052382;28;20045;-71
2021/04/14 10:38:35;;;;;;;6.97;6.10;;;5.70;99.90;;;;;;5035268;28;20127;-68
2021/04/14 11:09:56;;;;;;;12.30;7.05;;;5.60;99.90;;;;;;5131347;27;20309;-71
2021/04/14 11:12:25;;;;;;;7.25;5.68;;;6.00;99.90;;;;;;5130314;28;20071;-69
2021/04/14 11:14:57;;;;;;;10.13;7.45;;;6.10;99.90;;;;;;5123913;27;20114;-70
2021/04/14 11:17:25;;;;;;;;;;;6.20;99.90;;;;;;5111467;28;20036;-67
2021/04/14 11:19:53;;;;;;;13.57;6.97;;;6.20;99.90;;;;;;5110839;28;19908;-68
2021/04/14 11:22:19;;;;;;;18.80;9.30;;;6.20;99.90;;;;;;5111027;28;20028;-68
2021/04/14 11:24:48;;;;;;;12.38;6.43;;;6.20;99.90;;;;;;5123488;28;20052;-71
2021/04/14 11:27:20;;;;;;;9.75;7.15;;;6.30;99.90;;;;;;5130090;28;20023;-66
2021/04/14 11:29:47;;;;;;;12.40;7.80;;;6.30;99.90;;;;;;5131244;27;20034;-70
2021/04/14 11:32:25;;;;;;;15.77;10.05;;;6.30;99.90;;;;;;5131606;27;20451;-68
2021/04/14 11:35:11;;;;;;;12.38;7.85;;;6.50;99.90;;;;;;5131305;27;20028;-69
2021/04/14 11:37:37;;;;;;;16.08;8.90;;;6.40;99.90;;;;;;5129499;28;20130;-69
2021/04/14 11:40:19;;;;;;;15.45;9.05;;;6.30;99.90;;;;;;5130968;27;20086;-73
2021/04/14 11:42:52;;;;;;;8.50;6.18;;;6.40;99.90;;;;;;5131063;27;20069;-72
2021/04/14 11:45:34;;;;;;;9.57;6.68;;;6.40;99.90;;;;;;5129716;28;20360;-72
2021/04/14 11:48:16;;;;;;;12.82;7.35;;;6.50;99.90;;;;;;5129703;28;20359;-72
2021/04/14 11:50:44;;;;;;;9.93;7.05;;;6.60;99.90;;;;;;5130892;27;20031;-67
2021/04/14 11:53:23;;;;;;;7.32;5.65;;;6.90;99.90;;;;;;5129581;28;20047;-68
2021/04/14 11:55:50;;;;;;;7.90;5.35;;;6.70;99.90;;;;;;5130699;27;20367;-71
2021/04/14 11:58:24;;;;;;;7.75;5.45;;;6.60;99.90;;;;;;5128692;28;20027;-70
2021/04/14 12:00:51;;;;;;;10.10;6.88;;;6.60;99.90;;;;;;5119193;28;20144;-68
2021/04/14 12:03:19;;;;;;;7.93;5.25;;;6.80;99.90;;;;;;5129396;28;20459;-71
2021/04/14 12:05:54;;;;;;;11.48;6.07;;;6.70;99.90;;;;;;5130796;28;20473;-68
2021/04/14 12:08:21;;;;;;;7.03;4.25;;;6.60;99.90;;;;;;5129443;28;20047;-70
2021/04/14 12:10:47;;;;;;;8.88;6.30;;;6.50;99.90;;;;;;5116883;27;20439;-68
2021/04/14 12:13:13;;;;;;;7.55;5.18;;;6.50;99.90;;;;;;5115335;28;20038;-68
2021/04/14 12:15:39;;;;;;;9.00;5.60;;;6.50;99.90;;;;;;5116042;28;20027;-68
2021/04/14 12:18:05;;;;;;;9.10;6.20;;;6.60;99.90;;;;;;5116651;28;20147;-70
2021/04/14 12:20:31;;;;;;;8.25;5.97;;;6.50;99.90;;;;;;5115296;28;20077;-72
2021/04/14 12:22:57;;;;;;;13.15;7.25;;;6.40;99.90;;;;;;5116695;28;20371;-68
2021/04/14 12:25:23;;;;;;;15.98;9.00;;;6.40;99.90;;;;;;5116760;28;20045;-73
2021/04/14 12:27:50;;;;;;;12.88;7.75;;;6.40;99.90;;;;;;5115343;28;20035;-70
2021/04/14 12:30:16;;;;;;;14.27;8.82;;;6.50;99.90;;;;;;5116658;27;20368;-72
2021/04/14 12:32:42;;;;;;;13.85;7.40;;;6.50;99.90;;;;;;5115117;28;20078;-68
2021/04/14 12:35:09;;;;;;;18.45;9.32;;;6.30;99.90;;;;;;5116625;28;20434;-66
2021/04/14 12:37:35;;;;;;;24.33;10.50;;;6.30;99.90;;;;;;5116662;28;20035;-67
2021/04/14 12:40:01;;;;;;;19.08;9.85;;;6.30;99.90;;;;;;5117132;28;20036;-68
2021/04/14 12:42:30;;;;;;;20.80;11.45;;;6.50;99.90;;;;;;5114644;28;20031;-69
2021/04/14 12:44:56;;;;;;;23.83;11.20;;;6.50;99.90;;;;;;5116481;28;20467;-69
2021/04/14 12:47:25;;;;;;;28.55;12.15;;;6.50;99.90;;;;;;5116697;28;20057;-69
2021/04/14 12:49:52;;;;;;;19.35;9.45;;;6.30;99.90;;;;;;5115945;28;20055;-69
2021/04/14 12:52:22;;;;;;;32.40;13.30;;;6.10;99.90;;;;;;5116322;28;20028;-70
2021/04/14 12:54:49;;;;;;;14.98;9.88;;;6.10;99.90;;;;;;5115021;28;20035;-71
2021/04/14 12:57:23;;;;;;;13.45;8.00;;;6.20;99.90;;;;;;5115796;28;20030;-70
2021/04/14 12:59:57;;;;;;;24.55;11.00;;;6.20;99.90;;;;;;5116049;28;20024;-73
2021/04/14 13:02:28;;;;;;;17.05;9.07;;;6.20;99.90;;;;;;5114519;28;20050;-72
2021/04/14 13:05:22;;;;;;;30.25;11.88;;;6.10;99.90;;;;;;5114844;28;20030;-71
2021/04/14 13:08:07;;;;;;;24.30;10.10;;;6.10;99.90;;;;;;5115405;28;20106;-71
2021/04/14 13:10:51;;;;;;;28.40;13.30;;;6.10;99.90;;;;;;5097688;28;20487;-74
2021/04/14 13:13:17;;;;;;;17.33;7.88;;;6.20;99.90;;;;;;5116251;28;20036;-72
2021/04/14 13:16:02;;;;;;;23.48;9.13;;;6.30;99.90;;;;;;5098428;28;20020;-73
2021/04/14 13:18:28;;;;;;;16.67;9.32;;;6.20;99.90;;;;;;5094171;28;20414;-72
2021/04/14 13:20:56;;;;;;;14.18;8.93;;;6.20;99.90;;;;;;5092850;28;20482;-74
2021/04/14 13:23:39;;;;;;;15.38;9.32;;;6.30;99.90;;;;;;5093932;28;20107;-74
2021/04/14 13:26:18;;;;;;;9.95;6.90;;;6.20;99.90;;;;;;5093687;28;20028;-71
2021/04/14 13:29:02;;;;;;;11.52;7.55;;;6.10;99.90;;;;;;5095209;28;20028;-71
2021/04/14 13:31:52;;;;;;;13.38;8.15;;;6.20;99.90;;;;;;5093768;28;20141;-71
2021/04/14 13:34:45;;;;;;;11.32;8.20;;;6.20;99.90;;;;;;5094025;28;20043;-72
2021/04/14 13:37:16;;;;;;;10.07;7.53;;;6.20;99.90;;;;;;5094954;28;20024;-70
2021/04/14 13:39:55;;;;;;;17.00;10.02;;;6.20;99.90;;;;;;5104639;28;20511;-71
2021/04/14 13:42:26;;;;;;;8.23;6.55;;;6.20;99.90;;;;;;5113314;28;20045;-69
2021/04/14 13:44:59;;;;;;;8.85;6.15;;;6.10;99.90;;;;;;5114061;28;20114;-69